sensor_id;sensor_type;location;lat;lon;timestamp;P1;durP1;ratioP1;P2;durP2;ratioP2
58091;SDS011;43896;48.178;11.578;2023-02-01T00:00:45;5.40;;;2.10;;
58091;SDS011;43896;48.178;11.578;2023-02-01T00:03:10;5.68;;;2.45;;
58091;SDS011;43896;48.178;11.578;2023-02-01T00:05:37;6.28;;;2.45;;
58091;SDS011;43896;48.178;11.578;2023-02-01T00:08:03;5.43;;;2.40;;
58091;SDS011;43896;48.178;11.578;2023-02-01T00:10:28;4.60;;;2.03;;
58091;SDS011;43896;48.178;11.578;2023-02-01T00:12:54;5.03;;;2.50;;
58091;SDS011;43896;48.178;11.578;2023-02-01T00:15:19;8.02;;;2.45;;
58091;SDS011;43896;48.178;11.578;2023-02-01T00:17:45;5.35;;;2.25;;
58091;SDS011;43896;48.178;11.578;2023-02-01T00:20:11;4.63;;;2.22;;
58091;SDS011;43896;48.178;11.578;2023-02-01T00:22:36;5.22;;;2.60;;
58091;SDS011;43896;48.178;11.578;2023-02-01T00:25:02;4.63;;;2.05;;
58091;SDS011;43896;48.178;11.578;2023-02-01T00:27:27;5.45;;;2.30;;
58091;SDS011;43896;48.178;11.578;2023-02-01T00:29:54;5.32;;;2.22;;
58091;SDS011;43896;48.178;11.578;2023-02-01T00:32:20;5.10;;;2.28;;
58091;SDS011;43896;48.178;11.578;2023-02-01T00:34:45;5.05;;;2.28;;
58091;SDS011;43896;48.178;11.578;2023-02-01T00:37:10;6.80;;;2.38;;
58091;SDS011;43896;48.178;11.578;2023-02-01T00:39:36;5.32;;;2.20;;
58091;SDS011;43896;48.178;11.578;2023-02-01T00:42:01;5.63;;;2.45;;
58091;SDS011;43896;48.178;11.578;2023-02-01T00:44:27;5.72;;;2.10;;
58091;SDS011;43896;48.178;11.578;2023-02-01T00:46:52;4.97;;;2.08;;
58091;SDS011;43896;48.178;11.578;2023-02-01T00:49:18;5.63;;;2.42;;
58091;SDS011;43896;48.178;11.578;2023-02-01T00:51:43;4.93;;;2.33;;
58091;SDS011;43896;48.178;11.578;2023-02-01T00:54:08;4.72;;;2.28;;
58091;SDS011;43896;48.178;11.578;2023-02-01T00:56:33;5.28;;;2.60;;
58091;SDS011;43896;48.178;11.578;2023-02-01T00:58:59;5.28;;;2.40;;
58091;SDS011;43896;48.178;11.578;2023-02-01T01:01:26;5.88;;;2.70;;
58091;SDS011;43896;48.178;11.578;2023-02-01T01:03:53;6.38;;;2.50;;
58091;SDS011;43896;48.178;11.578;2023-02-01T01:06:24;6.47;;;2.67;;
58091;SDS011;43896;48.178;11.578;2023-02-01T01:08:58;6.55;;;2.78;;
58091;SDS011;43896;48.178;11.578;2023-02-01T01:11:26;5.07;;;2.42;;
58091;SDS011;43896;48.178;11.578;2023-02-01T01:13:54;5.40;;;2.90;;
58091;SDS011;43896;48.178;11.578;2023-02-01T01:16:21;6.05;;;3.03;;
58091;SDS011;43896;48.178;11.578;2023-02-01T01:18:47;5.78;;;2.88;;
58091;SDS011;43896;48.178;11.578;2023-02-01T01:21:14;5.85;;;2.72;;
58091;SDS011;43896;48.178;11.578;2023-02-01T01:23:40;5.75;;;2.85;;
58091;SDS011;43896;48.178;11.578;2023-02-01T01:26:10;6.05;;;2.60;;
58091;SDS011;43896;48.178;11.578;2023-02-01T01:28:39;5.28;;;2.70;;
58091;SDS011;43896;48.178;11.578;2023-02-01T01:31:07;5.88;;;2.97;;
58091;SDS011;43896;48.178;11.578;2023-02-01T01:33:33;6.57;;;2.97;;
58091;SDS011;43896;48.178;11.578;2023-02-01T01:35:58;6.40;;;2.90;;
58091;SDS011;43896;48.178;11.578;2023-02-01T01:38:24;6.13;;;3.00;;
58091;SDS011;43896;48.178;11.578;2023-02-01T01:40:49;6.68;;;3.20;;
58091;SDS011;43896;48.178;11.578;2023-02-01T01:43:15;7.80;;;3.15;;
58091;SDS011;43896;48.178;11.578;2023-02-01T01:45:42;6.07;;;3.20;;
58091;SDS011;43896;48.178;11.578;2023-02-01T01:48:13;6.03;;;3.13;;
58091;SDS011;43896;48.178;11.578;2023-02-01T01:50:40;7.05;;;3.63;;
58091;SDS011;43896;48.178;11.578;2023-02-01T01:53:13;6.43;;;3.30;;
58091;SDS011;43896;48.178;11.578;2023-02-01T01:55:43;6.13;;;3.28;;
58091;SDS011;43896;48.178;11.578;2023-02-01T01:58:12;6.53;;;3.55;;
58091;SDS011;43896;48.178;11.578;2023-02-01T02:00:43;8.25;;;3.40;;
58091;SDS011;43896;48.178;11.578;2023-02-01T02:03:20;6.40;;;3.28;;
58091;SDS011;43896;48.178;11.578;2023-02-01T02:05:52;6.50;;;3.33;;
58091;SDS011;43896;48.178;11.578;2023-02-01T02:08:20;6.55;;;3.38;;
58091;SDS011;43896;48.178;11.578;2023-02-01T02:10:48;6.93;;;3.70;;
58091;SDS011;43896;48.178;11.578;2023-02-01T02:13:37;8.13;;;3.75;;
58091;SDS011;43896;48.178;11.578;2023-02-01T02:16:10;6.65;;;3.50;;
58091;SDS011;43896;48.178;11.578;2023-02-01T02:18:43;6.10;;;3.50;;
58091;SDS011;43896;48.178;11.578;2023-02-01T02:22:04;8.10;;;3.53;;
58091;SDS011;43896;48.178;11.578;2023-02-01T02:27:20;6.75;;;3.72;;
58091;SDS011;43896;48.178;11.578;2023-02-01T02:30:11;7.38;;;3.72;;
58091;SDS011;43896;48.178;11.578;2023-02-01T02:38:17;6.95;;;3.70;;
58091;SDS011;43896;48.178;11.578;2023-02-01T02:40:56;6.47;;;3.45;;
58091;SDS011;43896;48.178;11.578;2023-02-01T02:46:48;7.82;;;3.67;;
58091;SDS011;43896;48.178;11.578;2023-02-01T02:49:58;7.82;;;3.72;;
58091;SDS011;43896;48.178;11.578;2023-02-01T02:53:01;6.47;;;3.40;;
58091;SDS011;43896;48.178;11.578;2023-02-01T02:55:54;7.07;;;3.50;;
58091;SDS011;43896;48.178;11.578;2023-02-01T02:58:41;7.03;;;3.83;;
58091;SDS011;43896;48.178;11.578;2023-02-01T03:01:27;7.05;;;3.55;;
58091;SDS011;43896;48.178;11.578;2023-02-01T03:04:12;6.28;;;3.55;;
58091;SDS011;43896;48.178;11.578;2023-02-01T03:06:42;6.28;;;3.38;;
58091;SDS011;43896;48.178;11.578;2023-02-01T03:09:08;6.60;;;3.38;;
58091;SDS011;43896;48.178;11.578;2023-02-01T03:11:39;7.60;;;3.60;;
58091;SDS011;43896;48.178;11.578;2023-02-01T03:14:28;6.65;;;3.20;;
58091;SDS011;43896;48.178;11.578;2023-02-01T03:16:59;6.13;;;3.10;;
58091;SDS011;43896;48.178;11.578;2023-02-01T03:19:34;5.82;;;3.03;;
58091;SDS011;43896;48.178;11.578;2023-02-01T03:22:03;6.37;;;3.10;;
58091;SDS011;43896;48.178;11.578;2023-02-01T03:24:34;5.40;;;2.72;;
58091;SDS011;43896;48.178;11.578;2023-02-01T03:32:19;6.03;;;2.72;;
58091;SDS011;43896;48.178;11.578;2023-02-01T03:34:45;5.68;;;2.90;;
58091;SDS011;43896;48.178;11.578;2023-02-01T03:37:12;5.22;;;2.65;;
58091;SDS011;43896;48.178;11.578;2023-02-01T03:42:16;6.10;;;2.85;;
58091;SDS011;43896;48.178;11.578;2023-02-01T03:47:30;5.10;;;2.63;;
58091;SDS011;43896;48.178;11.578;2023-02-01T03:50:04;6.10;;;3.05;;
58091;SDS011;43896;48.178;11.578;2023-02-01T03:52:42;5.82;;;2.78;;
58091;SDS011;43896;48.178;11.578;2023-02-01T03:55:12;5.32;;;2.50;;
58091;SDS011;43896;48.178;11.578;2023-02-01T03:57:43;5.40;;;2.83;;
58091;SDS011;43896;48.178;11.578;2023-02-01T04:00:18;5.85;;;2.78;;
58091;SDS011;43896;48.178;11.578;2023-02-01T04:02:46;6.32;;;2.80;;
58091;SDS011;43896;48.178;11.578;2023-02-01T04:05:12;5.60;;;2.42;;
58091;SDS011;43896;48.178;11.578;2023-02-01T04:07:37;5.45;;;2.70;;
58091;SDS011;43896;48.178;11.578;2023-02-01T04:10:03;5.82;;;2.75;;
58091;SDS011;43896;48.178;11.578;2023-02-01T04:12:29;6.85;;;3.03;;
58091;SDS011;43896;48.178;11.578;2023-02-01T04:14:54;5.80;;;3.00;;
58091;SDS011;43896;48.178;11.578;2023-02-01T04:17:20;5.63;;;2.75;;
58091;SDS011;43896;48.178;11.578;2023-02-01T04:19:45;6.38;;;2.65;;
58091;SDS011;43896;48.178;11.578;2023-02-01T04:22:11;6.03;;;2.80;;
58091;SDS011;43896;48.178;11.578;2023-02-01T04:24:37;6.15;;;2.53;;
58091;SDS011;43896;48.178;11.578;2023-02-01T04:27:02;7.57;;;2.70;;
58091;SDS011;43896;48.178;11.578;2023-02-01T04:29:28;7.18;;;3.03;;
58091;SDS011;43896;48.178;11.578;2023-02-01T04:31:53;5.40;;;2.75;;
58091;SDS011;43896;48.178;11.578;2023-02-01T04:34:19;5.80;;;2.90;;
58091;SDS011;43896;48.178;11.578;2023-02-01T04:36:44;6.72;;;3.17;;
58091;SDS011;43896;48.178;11.578;2023-02-01T04:39:09;6.57;;;3.20;;
58091;SDS011;43896;48.178;11.578;2023-02-01T04:41:35;5.90;;;3.25;;
58091;SDS011;43896;48.178;11.578;2023-02-01T04:44:00;6.63;;;3.20;;
58091;SDS011;43896;48.178;11.578;2023-02-01T04:46:26;6.35;;;3.08;;
58091;SDS011;43896;48.178;11.578;2023-02-01T04:48:51;6.53;;;3.40;;
58091;SDS011;43896;48.178;11.578;2023-02-01T04:51:16;5.55;;;2.85;;
58091;SDS011;43896;48.178;11.578;2023-02-01T04:53:43;6.28;;;3.33;;
58091;SDS011;43896;48.178;11.578;2023-02-01T04:56:09;5.75;;;3.00;;
58091;SDS011;43896;48.178;11.578;2023-02-01T04:58:35;6.07;;;3.10;;
58091;SDS011;43896;48.178;11.578;2023-02-01T05:01:03;7.13;;;3.20;;
58091;SDS011;43896;48.178;11.578;2023-02-01T05:05:56;6.88;;;3.17;;
58091;SDS011;43896;48.178;11.578;2023-02-01T05:08:22;6.95;;;3.35;;
58091;SDS011;43896;48.178;11.578;2023-02-01T05:10:47;6.90;;;3.78;;
58091;SDS011;43896;48.178;11.578;2023-02-01T05:13:13;6.70;;;3.45;;
58091;SDS011;43896;48.178;11.578;2023-02-01T05:15:57;6.32;;;3.40;;
58091;SDS011;43896;48.178;11.578;2023-02-01T05:18:22;5.72;;;3.40;;
58091;SDS011;43896;48.178;11.578;2023-02-01T05:20:47;6.60;;;3.45;;
58091;SDS011;43896;48.178;11.578;2023-02-01T05:23:13;7.75;;;3.60;;
58091;SDS011;43896;48.178;11.578;2023-02-01T05:25:38;6.93;;;3.60;;
58091;SDS011;43896;48.178;11.578;2023-02-01T05:28:04;6.50;;;3.65;;
58091;SDS011;43896;48.178;11.578;2023-02-01T05:30:29;7.57;;;3.42;;
58091;SDS011;43896;48.178;11.578;2023-02-01T05:32:54;7.72;;;3.75;;
58091;SDS011;43896;48.178;11.578;2023-02-01T05:35:20;6.60;;;3.30;;
58091;SDS011;43896;48.178;11.578;2023-02-01T05:37:45;7.53;;;3.58;;
58091;SDS011;43896;48.178;11.578;2023-02-01T05:40:11;6.47;;;3.42;;
58091;SDS011;43896;48.178;11.578;2023-02-01T05:42:36;6.28;;;3.45;;
58091;SDS011;43896;48.178;11.578;2023-02-01T05:45:02;6.80;;;3.80;;
58091;SDS011;43896;48.178;11.578;2023-02-01T05:47:30;7.70;;;3.90;;
58091;SDS011;43896;48.178;11.578;2023-02-01T05:49:55;6.38;;;3.65;;
58091;SDS011;43896;48.178;11.578;2023-02-01T05:52:21;8.27;;;3.60;;
58091;SDS011;43896;48.178;11.578;2023-02-01T05:54:47;6.95;;;3.30;;
58091;SDS011;43896;48.178;11.578;2023-02-01T05:57:12;6.57;;;3.65;;
58091;SDS011;43896;48.178;11.578;2023-02-01T05:59:49;7.10;;;3.80;;
58091;SDS011;43896;48.178;11.578;2023-02-01T06:02:15;7.97;;;3.65;;
58091;SDS011;43896;48.178;11.578;2023-02-01T06:04:41;6.25;;;3.70;;
58091;SDS011;43896;48.178;11.578;2023-02-01T06:07:07;6.40;;;3.47;;
58091;SDS011;43896;48.178;11.578;2023-02-01T06:09:35;7.53;;;3.97;;
58091;SDS011;43896;48.178;11.578;2023-02-01T06:12:01;6.88;;;3.38;;
58091;SDS011;43896;48.178;11.578;2023-02-01T06:14:27;6.95;;;3.40;;
58091;SDS011;43896;48.178;11.578;2023-02-01T06:16:53;6.20;;;3.30;;
58091;SDS011;43896;48.178;11.578;2023-02-01T06:19:19;6.85;;;3.60;;
58091;SDS011;43896;48.178;11.578;2023-02-01T06:21:45;8.70;;;3.70;;
58091;SDS011;43896;48.178;11.578;2023-02-01T06:24:10;6.95;;;3.67;;
58091;SDS011;43896;48.178;11.578;2023-02-01T06:26:36;6.80;;;3.38;;
58091;SDS011;43896;48.178;11.578;2023-02-01T06:29:01;7.80;;;3.80;;
58091;SDS011;43896;48.178;11.578;2023-02-01T06:31:26;6.95;;;3.60;;
58091;SDS011;43896;48.178;11.578;2023-02-01T06:33:51;6.50;;;3.35;;
58091;SDS011;43896;48.178;11.578;2023-02-01T06:36:18;5.75;;;3.20;;
58091;SDS011;43896;48.178;11.578;2023-02-01T06:38:46;6.28;;;3.13;;
58091;SDS011;43896;48.178;11.578;2023-02-01T06:41:11;6.63;;;3.25;;
58091;SDS011;43896;48.178;11.578;2023-02-01T06:43:37;7.78;;;3.60;;
58091;SDS011;43896;48.178;11.578;2023-02-01T06:46:04;6.85;;;3.38;;
58091;SDS011;43896;48.178;11.578;2023-02-01T06:48:32;6.90;;;3.65;;
58091;SDS011;43896;48.178;11.578;2023-02-01T06:50:58;6.40;;;3.13;;
58091;SDS011;43896;48.178;11.578;2023-02-01T06:53:23;7.18;;;3.50;;
58091;SDS011;43896;48.178;11.578;2023-02-01T06:55:55;6.30;;;3.30;;
58091;SDS011;43896;48.178;11.578;2023-02-01T06:58:29;7.30;;;3.50;;
58091;SDS011;43896;48.178;11.578;2023-02-01T07:00:56;8.63;;;3.13;;
58091;SDS011;43896;48.178;11.578;2023-02-01T07:03:22;5.47;;;3.10;;
58091;SDS011;43896;48.178;11.578;2023-02-01T07:05:47;7.13;;;3.20;;
58091;SDS011;43896;48.178;11.578;2023-02-01T07:08:12;5.72;;;2.90;;
58091;SDS011;43896;48.178;11.578;2023-02-01T07:10:38;6.70;;;3.38;;
58091;SDS011;43896;48.178;11.578;2023-02-01T07:13:03;6.70;;;2.88;;
58091;SDS011;43896;48.178;11.578;2023-02-01T07:15:29;7.15;;;3.42;;
58091;SDS011;43896;48.178;11.578;2023-02-01T07:17:54;6.07;;;3.10;;
58091;SDS011;43896;48.178;11.578;2023-02-01T07:20:20;5.75;;;2.80;;
58091;SDS011;43896;48.178;11.578;2023-02-01T07:22:45;5.60;;;2.88;;
58091;SDS011;43896;48.178;11.578;2023-02-01T07:25:11;6.28;;;2.80;;
58091;SDS011;43896;48.178;11.578;2023-02-01T07:27:36;5.80;;;2.70;;
58091;SDS011;43896;48.178;11.578;2023-02-01T07:30:03;5.53;;;2.80;;
58091;SDS011;43896;48.178;11.578;2023-02-01T07:32:29;4.93;;;2.70;;
58091;SDS011;43896;48.178;11.578;2023-02-01T07:34:55;5.50;;;2.58;;
58091;SDS011;43896;48.178;11.578;2023-02-01T07:37:21;5.88;;;2.80;;
58091;SDS011;43896;48.178;11.578;2023-02-01T07:39:46;6.05;;;2.75;;
58091;SDS011;43896;48.178;11.578;2023-02-01T07:42:11;4.90;;;2.45;;
58091;SDS011;43896;48.178;11.578;2023-02-01T07:44:37;5.43;;;2.40;;
58091;SDS011;43896;48.178;11.578;2023-02-01T07:47:02;5.68;;;2.47;;
58091;SDS011;43896;48.178;11.578;2023-02-01T07:49:27;5.03;;;2.50;;
58091;SDS011;43896;48.178;11.578;2023-02-01T07:51:53;4.68;;;2.30;;
58091;SDS011;43896;48.178;11.578;2023-02-01T07:54:18;6.57;;;2.33;;
58091;SDS011;43896;48.178;11.578;2023-02-01T07:56:43;5.13;;;2.33;;
58091;SDS011;43896;48.178;11.578;2023-02-01T07:59:09;6.40;;;2.70;;
58091;SDS011;43896;48.178;11.578;2023-02-01T08:01:34;4.75;;;2.30;;
58091;SDS011;43896;48.178;11.578;2023-02-01T08:04:00;6.28;;;2.45;;
58091;SDS011;43896;48.178;11.578;2023-02-01T08:06:27;4.47;;;2.15;;
58091;SDS011;43896;48.178;11.578;2023-02-01T08:08:55;5.32;;;2.35;;
58091;SDS011;43896;48.178;11.578;2023-02-01T08:11:22;5.60;;;2.20;;
58091;SDS011;43896;48.178;11.578;2023-02-01T08:13:48;5.65;;;2.22;;
58091;SDS011;43896;48.178;11.578;2023-02-01T08:16:14;5.43;;;2.20;;
58091;SDS011;43896;48.178;11.578;2023-02-01T08:18:41;8.60;;;2.10;;
58091;SDS011;43896;48.178;11.578;2023-02-01T08:21:10;5.13;;;2.20;;
58091;SDS011;43896;48.178;11.578;2023-02-01T08:23:39;4.50;;;2.10;;
58091;SDS011;43896;48.178;11.578;2023-02-01T08:28:33;4.93;;;2.08;;
58091;SDS011;43896;48.178;11.578;2023-02-01T08:30:58;4.72;;;2.13;;
58091;SDS011;43896;48.178;11.578;2023-02-01T08:33:28;4.68;;;2.10;;
58091;SDS011;43896;48.178;11.578;2023-02-01T08:35:53;4.63;;;1.75;;
58091;SDS011;43896;48.178;11.578;2023-02-01T08:38:19;5.18;;;1.88;;
58091;SDS011;43896;48.178;11.578;2023-02-01T08:40:44;3.92;;;1.90;;
58091;SDS011;43896;48.178;11.578;2023-02-01T08:43:11;4.68;;;2.05;;
58091;SDS011;43896;48.178;11.578;2023-02-01T08:45:36;7.15;;;2.30;;
58091;SDS011;43896;48.178;11.578;2023-02-01T08:48:01;5.00;;;2.20;;
58091;SDS011;43896;48.178;11.578;2023-02-01T08:50:27;5.38;;;2.20;;
58091;SDS011;43896;48.178;11.578;2023-02-01T08:52:52;6.20;;;2.40;;
58091;SDS011;43896;48.178;11.578;2023-02-01T08:55:18;7.43;;;2.45;;
58091;SDS011;43896;48.178;11.578;2023-02-01T08:57:44;5.30;;;2.55;;
58091;SDS011;43896;48.178;11.578;2023-02-01T09:00:13;5.53;;;2.28;;
58091;SDS011;43896;48.178;11.578;2023-02-01T09:02:41;4.50;;;1.90;;
58091;SDS011;43896;48.178;11.578;2023-02-01T09:05:06;6.13;;;2.53;;
58091;SDS011;43896;48.178;11.578;2023-02-01T09:07:32;7.43;;;2.40;;
58091;SDS011;43896;48.178;11.578;2023-02-01T09:09:58;5.45;;;2.15;;
58091;SDS011;43896;48.178;11.578;2023-02-01T09:12:26;4.97;;;2.38;;
58091;SDS011;43896;48.178;11.578;2023-02-01T09:14:55;5.93;;;2.13;;
58091;SDS011;43896;48.178;11.578;2023-02-01T09:17:22;4.90;;;2.13;;
58091;SDS011;43896;48.178;11.578;2023-02-01T09:19:48;5.93;;;2.00;;
58091;SDS011;43896;48.178;11.578;2023-02-01T09:22:14;5.13;;;2.17;;
58091;SDS011;43896;48.178;11.578;2023-02-01T09:24:40;4.60;;;2.00;;
58091;SDS011;43896;48.178;11.578;2023-02-01T09:27:06;4.70;;;1.90;;
58091;SDS011;43896;48.178;11.578;2023-02-01T09:29:31;4.85;;;2.08;;
58091;SDS011;43896;48.178;11.578;2023-02-01T09:31:56;6.55;;;2.00;;
58091;SDS011;43896;48.178;11.578;2023-02-01T09:34:22;5.65;;;2.08;;
58091;SDS011;43896;48.178;11.578;2023-02-01T09:36:47;4.60;;;2.10;;
58091;SDS011;43896;48.178;11.578;2023-02-01T09:39:13;8.02;;;2.10;;
58091;SDS011;43896;48.178;11.578;2023-02-01T09:47:01;4.13;;;1.75;;
58091;SDS011;43896;48.178;11.578;2023-02-01T09:49:32;5.47;;;1.98;;
58091;SDS011;43896;48.178;11.578;2023-02-01T09:52:01;6.22;;;2.28;;
58091;SDS011;43896;48.178;11.578;2023-02-01T09:54:37;5.40;;;2.10;;
58091;SDS011;43896;48.178;11.578;2023-02-01T09:57:15;6.93;;;1.90;;
58091;SDS011;43896;48.178;11.578;2023-02-01T09:59:46;4.63;;;1.92;;
58091;SDS011;43896;48.178;11.578;2023-02-01T10:04:42;5.53;;;2.00;;
58091;SDS011;43896;48.178;11.578;2023-02-01T10:18:27;5.15;;;1.98;;
58091;SDS011;43896;48.178;11.578;2023-02-01T10:21:04;6.43;;;2.40;;
58091;SDS011;43896;48.178;11.578;2023-02-01T10:26:40;7.05;;;2.08;;
58091;SDS011;43896;48.178;11.578;2023-02-01T10:29:19;5.30;;;2.30;;
58091;SDS011;43896;48.178;11.578;2023-02-01T10:31:47;4.45;;;2.15;;
58091;SDS011;43896;48.178;11.578;2023-02-01T10:36:53;5.15;;;2.17;;
58091;SDS011;43896;48.178;11.578;2023-02-01T10:39:21;6.22;;;2.60;;
58091;SDS011;43896;48.178;11.578;2023-02-01T10:41:48;5.00;;;1.80;;
58091;SDS011;43896;48.178;11.578;2023-02-01T10:44:17;6.47;;;2.30;;
58091;SDS011;43896;48.178;11.578;2023-02-01T10:46:47;4.82;;;2.20;;
58091;SDS011;43896;48.178;11.578;2023-02-01T10:49:15;5.57;;;2.13;;
58091;SDS011;43896;48.178;11.578;2023-02-01T10:51:46;5.15;;;2.10;;
58091;SDS011;43896;48.178;11.578;2023-02-01T10:54:18;4.97;;;2.15;;
58091;SDS011;43896;48.178;11.578;2023-02-01T10:56:45;4.72;;;1.90;;
58091;SDS011;43896;48.178;11.578;2023-02-01T10:59:18;5.90;;;2.17;;
58091;SDS011;43896;48.178;11.578;2023-02-01T11:01:46;4.28;;;1.90;;
58091;SDS011;43896;48.178;11.578;2023-02-01T11:04:14;7.32;;;2.10;;
58091;SDS011;43896;48.178;11.578;2023-02-01T11:06:45;4.47;;;2.03;;
58091;SDS011;43896;48.178;11.578;2023-02-01T11:14:14;5.90;;;1.65;;
58091;SDS011;43896;48.178;11.578;2023-02-01T11:16:41;6.00;;;2.28;;
58091;SDS011;43896;48.178;11.578;2023-02-01T11:19:14;4.40;;;2.05;;
58091;SDS011;43896;48.178;11.578;2023-02-01T11:21:41;5.20;;;2.33;;
58091;SDS011;43896;48.178;11.578;2023-02-01T11:24:15;4.00;;;2.10;;
58091;SDS011;43896;48.178;11.578;2023-02-01T11:26:48;7.60;;;2.45;;
58091;SDS011;43896;48.178;11.578;2023-02-01T11:29:14;7.05;;;2.42;;
58091;SDS011;43896;48.178;11.578;2023-02-01T11:31:44;6.20;;;2.30;;
58091;SDS011;43896;48.178;11.578;2023-02-01T11:34:12;6.60;;;2.47;;
58091;SDS011;43896;48.178;11.578;2023-02-01T11:36:40;5.35;;;2.42;;
58091;SDS011;43896;48.178;11.578;2023-02-01T11:41:54;5.50;;;2.58;;
58091;SDS011;43896;48.178;11.578;2023-02-01T11:44:26;6.47;;;2.33;;
58091;SDS011;43896;48.178;11.578;2023-02-01T11:46:55;6.70;;;2.58;;
58091;SDS011;43896;48.178;11.578;2023-02-01T12:05:36;6.47;;;3.10;;
58091;SDS011;43896;48.178;11.578;2023-02-01T12:20:08;6.03;;;2.92;;
58091;SDS011;43896;48.178;11.578;2023-02-01T12:34:32;6.50;;;2.67;;
58091;SDS011;43896;48.178;11.578;2023-02-01T12:43:00;5.97;;;2.60;;
58091;SDS011;43896;48.178;11.578;2023-02-01T12:45:39;7.18;;;2.35;;
58091;SDS011;43896;48.178;11.578;2023-02-01T12:50:56;6.80;;;3.10;;
58091;SDS011;43896;48.178;11.578;2023-02-01T12:56:13;6.50;;;2.75;;
58091;SDS011;43896;48.178;11.578;2023-02-01T12:58:50;6.07;;;2.83;;
58091;SDS011;43896;48.178;11.578;2023-02-01T13:06:38;5.68;;;2.50;;
58091;SDS011;43896;48.178;11.578;2023-02-01T13:15:05;5.20;;;2.55;;
58091;SDS011;43896;48.178;11.578;2023-02-01T13:17:39;6.00;;;2.40;;
58091;SDS011;43896;48.178;11.578;2023-02-01T13:20:18;6.22;;;2.53;;
58091;SDS011;43896;48.178;11.578;2023-02-01T13:22:53;7.03;;;2.40;;
58091;SDS011;43896;48.178;11.578;2023-02-01T13:25:37;5.60;;;2.30;;
58091;SDS011;43896;48.178;11.578;2023-02-01T13:30:54;6.15;;;2.78;;
58091;SDS011;43896;48.178;11.578;2023-02-01T13:33:28;6.40;;;2.40;;
58091;SDS011;43896;48.178;11.578;2023-02-01T13:41:49;4.93;;;2.08;;
58091;SDS011;43896;48.178;11.578;2023-02-01T13:44:40;6.15;;;2.30;;
58091;SDS011;43896;48.178;11.578;2023-02-01T13:49:52;6.22;;;2.50;;
58091;SDS011;43896;48.178;11.578;2023-02-01T13:52:25;5.88;;;2.80;;
58091;SDS011;43896;48.178;11.578;2023-02-01T13:55:03;6.13;;;2.70;;
58091;SDS011;43896;48.178;11.578;2023-02-01T13:57:44;5.07;;;2.42;;
58091;SDS011;43896;48.178;11.578;2023-02-01T14:00:27;6.55;;;2.53;;
58091;SDS011;43896;48.178;11.578;2023-02-01T14:10:47;6.00;;;2.63;;
58091;SDS011;43896;48.178;11.578;2023-02-01T14:16:10;5.10;;;2.35;;
58091;SDS011;43896;48.178;11.578;2023-02-01T14:23:40;5.70;;;2.20;;
58091;SDS011;43896;48.178;11.578;2023-02-01T14:26:09;6.53;;;2.38;;
58091;SDS011;43896;48.178;11.578;2023-02-01T14:55:50;8.27;;;2.50;;
58091;SDS011;43896;48.178;11.578;2023-02-01T15:00:56;5.30;;;1.80;;
58091;SDS011;43896;48.178;11.578;2023-02-01T15:03:36;7.55;;;2.38;;
58091;SDS011;43896;48.178;11.578;2023-02-01T15:08:48;5.43;;;2.08;;
58091;SDS011;43896;48.178;11.578;2023-02-01T15:11:17;4.95;;;1.92;;
58091;SDS011;43896;48.178;11.578;2023-02-01T15:13:47;6.47;;;1.98;;
58091;SDS011;43896;48.178;11.578;2023-02-01T15:16:16;6.30;;;1.88;;
58091;SDS011;43896;48.178;11.578;2023-02-01T15:18:42;6.70;;;2.08;;
58091;SDS011;43896;48.178;11.578;2023-02-01T15:21:17;7.18;;;1.95;;
58091;SDS011;43896;48.178;11.578;2023-02-01T15:23:44;4.53;;;1.90;;
58091;SDS011;43896;48.178;11.578;2023-02-01T15:26:23;6.57;;;2.10;;
58091;SDS011;43896;48.178;11.578;2023-02-01T15:28:50;4.97;;;1.80;;
58091;SDS011;43896;48.178;11.578;2023-02-01T15:31:15;5.25;;;2.10;;
58091;SDS011;43896;48.178;11.578;2023-02-01T15:34:00;7.38;;;2.13;;
58091;SDS011;43896;48.178;11.578;2023-02-01T15:36:26;6.15;;;1.77;;
58091;SDS011;43896;48.178;11.578;2023-02-01T15:44:26;6.47;;;1.90;;
58091;SDS011;43896;48.178;11.578;2023-02-01T15:46:55;5.10;;;2.03;;
58091;SDS011;43896;48.178;11.578;2023-02-01T15:49:31;5.38;;;1.85;;
58091;SDS011;43896;48.178;11.578;2023-02-01T15:52:02;7.55;;;1.92;;
58091;SDS011;43896;48.178;11.578;2023-02-01T15:54:30;4.60;;;1.60;;
58091;SDS011;43896;48.178;11.578;2023-02-01T15:57:01;4.60;;;1.88;;
58091;SDS011;43896;48.178;11.578;2023-02-01T15:59:29;4.90;;;1.70;;
58091;SDS011;43896;48.178;11.578;2023-02-01T16:02:00;4.97;;;1.70;;
58091;SDS011;43896;48.178;11.578;2023-02-01T16:04:27;7.75;;;1.67;;
58091;SDS011;43896;48.178;11.578;2023-02-01T16:07:02;4.38;;;1.27;;
58091;SDS011;43896;48.178;11.578;2023-02-01T16:09:39;5.38;;;1.60;;
58091;SDS011;43896;48.178;11.578;2023-02-01T16:12:32;5.10;;;1.50;;
58091;SDS011;43896;48.178;11.578;2023-02-01T16:15:00;7.93;;;1.98;;
58091;SDS011;43896;48.178;11.578;2023-02-01T16:17:27;5.63;;;1.73;;
58091;SDS011;43896;48.178;11.578;2023-02-01T16:19:52;6.13;;;1.77;;
58091;SDS011;43896;48.178;11.578;2023-02-01T16:22:17;6.05;;;1.90;;
58091;SDS011;43896;48.178;11.578;2023-02-01T16:24:43;6.55;;;1.70;;
58091;SDS011;43896;48.178;11.578;2023-02-01T16:27:09;6.68;;;1.85;;
58091;SDS011;43896;48.178;11.578;2023-02-01T16:29:34;5.90;;;1.83;;
58091;SDS011;43896;48.178;11.578;2023-02-01T16:31:59;4.90;;;1.48;;
58091;SDS011;43896;48.178;11.578;2023-02-01T16:34:25;9.45;;;1.98;;
58091;SDS011;43896;48.178;11.578;2023-02-01T16:36:50;5.65;;;1.50;;
58091;SDS011;43896;48.178;11.578;2023-02-01T16:39:17;6.07;;;1.67;;
58091;SDS011;43896;48.178;11.578;2023-02-01T16:41:44;6.95;;;1.90;;
58091;SDS011;43896;48.178;11.578;2023-02-01T16:44:10;5.32;;;1.50;;
58091;SDS011;43896;48.178;11.578;2023-02-01T16:46:38;5.45;;;1.45;;
58091;SDS011;43896;48.178;11.578;2023-02-01T16:49:05;6.45;;;1.55;;
58091;SDS011;43896;48.178;11.578;2023-02-01T16:51:31;5.38;;;1.48;;
58091;SDS011;43896;48.178;11.578;2023-02-01T16:53:57;6.40;;;1.63;;
58091;SDS011;43896;48.178;11.578;2023-02-01T16:56:30;7.05;;;2.13;;
58091;SDS011;43896;48.178;11.578;2023-02-01T16:58:58;6.18;;;1.90;;
58091;SDS011;43896;48.178;11.578;2023-02-01T17:01:24;4.60;;;1.92;;
58091;SDS011;43896;48.178;11.578;2023-02-01T17:03:50;4.97;;;1.98;;
58091;SDS011;43896;48.178;11.578;2023-02-01T17:06:19;7.68;;;2.05;;
58091;SDS011;43896;48.178;11.578;2023-02-01T17:08:48;7.30;;;2.22;;
58091;SDS011;43896;48.178;11.578;2023-02-01T17:11:16;7.28;;;2.20;;
58091;SDS011;43896;48.178;11.578;2023-02-01T17:13:42;8.57;;;2.00;;
58091;SDS011;43896;48.178;11.578;2023-02-01T17:18:50;6.45;;;2.50;;
58091;SDS011;43896;48.178;11.578;2023-02-01T17:21:20;6.53;;;2.05;;
58091;SDS011;43896;48.178;11.578;2023-02-01T17:23:46;8.60;;;2.40;;
58091;SDS011;43896;48.178;11.578;2023-02-01T17:26:11;5.10;;;2.08;;
58091;SDS011;43896;48.178;11.578;2023-02-01T17:28:37;7.38;;;2.40;;
58091;SDS011;43896;48.178;11.578;2023-02-01T17:31:02;5.38;;;2.00;;
58091;SDS011;43896;48.178;11.578;2023-02-01T17:33:33;5.30;;;2.17;;
58091;SDS011;43896;48.178;11.578;2023-02-01T17:36:00;8.15;;;1.85;;
58091;SDS011;43896;48.178;11.578;2023-02-01T17:38:26;6.35;;;2.00;;
58091;SDS011;43896;48.178;11.578;2023-02-01T17:40:52;6.43;;;2.10;;
58091;SDS011;43896;48.178;11.578;2023-02-01T17:43:19;7.38;;;2.22;;
58091;SDS011;43896;48.178;11.578;2023-02-01T17:45:59;6.57;;;2.30;;
58091;SDS011;43896;48.178;11.578;2023-02-01T17:48:28;8.40;;;1.92;;
58091;SDS011;43896;48.178;11.578;2023-02-01T17:50:53;6.03;;;1.80;;
58091;SDS011;43896;48.178;11.578;2023-02-01T17:53:23;5.38;;;1.88;;